»·PEaware :: N2AF KRAP-KCPR

N2AF :: KRAP-KCPR

FLIGHT INFORMATION

Flight Status: Arrived
Operator: Privately registered:
United States
More flights under this callsign
Pilot: Anonymous 36068 (36068)
Aircraft: CIRRUS VISIONJET
(SF50)
More flights by this aircraft type
Origin: KRAP Rapid City Regl
United States
Destination: KCPR Natrona Co Intl
United States
More flights between these airports :: More routes between these airports
Route: RAP V536 ECS V235 DDY
File this flight plan on PilotEdge
Remarks:
Altitude:
(Current/Filed)
12,000ft
Speed:
(Current/Filed)
300kts
Departed: 24-Aug-21 07:59 PM
Arrived: 24-Aug-21 08:53 PM
Distance/Time
Traveled:
163nm/0:54
Distance/Time
To Go:
Arrived

Flight Plot

Page will automatically refresh every two minutes.

Flight plan parsing failed; only flown route is shown


Map Options




Map Legend


Flown Route
Filed Route
Departure Airport
Arrival Airport
Navaid (VOR, NDB)
Fix

Horizontal Profiles

Position Reports

Time Latitude Longitude Heading Altitude Ground
Speed
24-Aug-21 19:57 43.965041 -103.171180 264 12315ft 242kts
24-Aug-21 19:58 43.958918 -103.260955 265 12315ft 228kts
24-Aug-21 19:59 43.952928 -103.348666 265 12021ft 233kts
24-Aug-21 20:00 43.946389 -103.441191 265 11817ft 250kts
24-Aug-21 20:01 43.939359 -103.539530 265 11816ft 260kts
24-Aug-21 20:02 43.932075 -103.640137 265 11816ft 263kts
24-Aug-21 20:03 43.924631 -103.741591 264 11816ft 265kts
24-Aug-21 20:04 43.917089 -103.843156 264 11816ft 265kts
24-Aug-21 20:05 43.909407 -103.945334 264 11816ft 265kts
24-Aug-21 20:06 43.901680 -104.046889 264 11816ft 265kts
24-Aug-21 20:07 43.893548 -104.149070 263 11817ft 266kts
24-Aug-21 20:08 43.885555 -104.250887 263 11817ft 266kts
24-Aug-21 20:09 43.865066 -104.348133 242 11817ft 266kts
24-Aug-21 20:10 43.830350 -104.438837 241 11817ft 266kts
24-Aug-21 20:11 43.795156 -104.528940 242 11816ft 266kts
24-Aug-21 20:12 43.760057 -104.619090 242 11816ft 266kts
24-Aug-21 20:13 43.724683 -104.709236 241 11816ft 266kts
24-Aug-21 20:14 43.689002 -104.799085 241 11816ft 266kts
24-Aug-21 20:15 43.653617 -104.888976 242 11816ft 266kts
24-Aug-21 20:16 43.618287 -104.978608 241 11816ft 266kts
24-Aug-21 20:17 43.582707 -105.068128 241 11816ft 266kts
24-Aug-21 20:18 43.546972 -105.157448 241 11816ft 266kts
24-Aug-21 20:19 43.511257 -105.246728 241 11816ft 266kts
24-Aug-21 20:20 43.475410 -105.336070 241 11816ft 266kts
24-Aug-21 20:21 43.439495 -105.425303 241 11816ft 266kts
24-Aug-21 20:22 43.403613 -105.514211 241 11816ft 266kts
24-Aug-21 20:23 43.350203 -105.576264 201 11282ft 261kts
24-Aug-21 20:24 43.283256 -105.612188 201 10817ft 253kts
24-Aug-21 20:25 43.217881 -105.647528 201 10817ft 257kts
24-Aug-21 20:26 43.150378 -105.684060 202 10755ft 264kts
24-Aug-21 20:27 43.082034 -105.720650 201 10752ft 264kts
24-Aug-21 20:28 43.013488 -105.757438 201 10752ft 264kts
24-Aug-21 20:29 42.944972 -105.794139 201 10752ft 264kts
24-Aug-21 20:30 42.876434 -105.830793 201 10752ft 264kts
24-Aug-21 20:31 42.808055 -105.867244 201 10752ft 264kts
24-Aug-21 20:32 42.741743 -105.902511 201 10750ft 245kts
24-Aug-21 20:33 42.682469 -105.935343 213 10664ft 224kts
24-Aug-21 20:34 42.650020 -106.006164 245 10078ft 220kts
24-Aug-21 20:35 42.629404 -106.080370 252 10051ft 203kts
24-Aug-21 20:36 42.615987 -106.153508 259 10052ft 196kts
24-Aug-21 20:37 42.608889 -106.226110 265 10052ft 193kts
24-Aug-21 20:38 42.607741 -106.299664 272 10052ft 195kts
24-Aug-21 20:39 42.612630 -106.373134 278 10052ft 196kts
24-Aug-21 20:40 42.623504 -106.445412 284 10052ft 196kts
24-Aug-21 20:41 42.640089 -106.515098 291 10094ft 179kts
24-Aug-21 20:42 42.658917 -106.572992 296 9422ft 173kts
24-Aug-21 20:43 42.682891 -106.630764 302 7996ft 173kts
24-Aug-21 20:44 42.707556 -106.678898 307 7953ft 151kts
24-Aug-21 20:45 42.740447 -106.686566 64 7562ft 164kts
24-Aug-21 20:46 42.767308 -106.638709 41 6956ft 156kts
24-Aug-21 20:47 42.796571 -106.601442 43 6951ft 136kts
24-Aug-21 20:48 42.823437 -106.566397 43 6948ft 129kts
24-Aug-21 20:49 42.845773 -106.537254 43 6648ft 102kts
24-Aug-21 20:50 42.866222 -106.510565 43 6099ft 101kts
24-Aug-21 20:51 42.886423 -106.484163 43 5559ft 101kts
24-Aug-21 20:52 42.902048 -106.463658 44 5327ft 26kts
24-Aug-21 20:53 42.901977 -106.461219 100 5327ft 8kts
24-Aug-21 20:54 42.903231 -106.457203 46 5329ft 0kts
24-Aug-21 20:55 42.903231 -106.457203 46 5329ft 0kts

Navigation Log

Ident Type
Flight plan parsing failed, navigation log unavailable